sensor_id;sensor_type;location;lat;lon;timestamp;P1;durP1;ratioP1;P2;durP2;ratioP2
20880;SDS011;10600;53.096;8.802;2022-08-19T00:00:22;19.60;;;12.00;;
20880;SDS011;10600;53.096;8.802;2022-08-19T00:01:24;16.85;;;10.73;;
20880;SDS011;10600;53.096;8.802;2022-08-19T00:02:29;19.55;;;11.38;;
20880;SDS011;10600;53.096;8.802;2022-08-19T00:03:29;22.20;;;11.20;;
20880;SDS011;10600;53.096;8.802;2022-08-19T00:04:31;21.70;;;12.48;;
20880;SDS011;10600;53.096;8.802;2022-08-19T00:05:36;20.73;;;11.38;;
20880;SDS011;10600;53.096;8.802;2022-08-19T00:06:38;19.50;;;11.93;;
20880;SDS011;10600;53.096;8.802;2022-08-19T00:07:41;18.02;;;12.00;;
20880;SDS011;10600;53.096;8.802;2022-08-19T00:08:43;18.35;;;11.77;;
20880;SDS011;10600;53.096;8.802;2022-08-19T00:09:43;19.90;;;11.70;;
20880;SDS011;10600;53.096;8.802;2022-08-19T00:10:45;20.02;;;12.65;;
20880;SDS011;10600;53.096;8.802;2022-08-19T00:11:47;20.45;;;11.68;;
20880;SDS011;10600;53.096;8.802;2022-08-19T00:12:48;20.40;;;12.18;;
20880;SDS011;10600;53.096;8.802;2022-08-19T00:13:49;21.45;;;12.27;;
20880;SDS011;10600;53.096;8.802;2022-08-19T00:14:50;19.85;;;11.85;;
20880;SDS011;10600;53.096;8.802;2022-08-19T00:15:53;17.70;;;11.00;;
20880;SDS011;10600;53.096;8.802;2022-08-19T00:16:54;21.13;;;12.05;;
20880;SDS011;10600;53.096;8.802;2022-08-19T00:17:54;19.13;;;12.50;;
20880;SDS011;10600;53.096;8.802;2022-08-19T00:18:55;19.02;;;11.55;;
20880;SDS011;10600;53.096;8.802;2022-08-19T00:19:56;17.23;;;11.45;;
20880;SDS011;10600;53.096;8.802;2022-08-19T00:20:57;17.02;;;11.25;;
20880;SDS011;10600;53.096;8.802;2022-08-19T00:21:59;18.15;;;12.15;;
20880;SDS011;10600;53.096;8.802;2022-08-19T00:23:00;20.73;;;11.25;;
20880;SDS011;10600;53.096;8.802;2022-08-19T00:24:01;17.45;;;10.50;;
20880;SDS011;10600;53.096;8.802;2022-08-19T00:25:02;17.67;;;10.40;;
20880;SDS011;10600;53.096;8.802;2022-08-19T00:26:04;14.50;;;9.18;;
20880;SDS011;10600;53.096;8.802;2022-08-19T00:27:05;14.70;;;8.52;;
20880;SDS011;10600;53.096;8.802;2022-08-19T00:28:05;13.95;;;8.57;;
20880;SDS011;10600;53.096;8.802;2022-08-19T00:29:07;15.63;;;7.60;;
20880;SDS011;10600;53.096;8.802;2022-08-19T00:30:09;12.38;;;7.85;;
20880;SDS011;10600;53.096;8.802;2022-08-19T00:31:10;14.80;;;8.20;;
20880;SDS011;10600;53.096;8.802;2022-08-19T00:32:11;9.82;;;6.88;;
20880;SDS011;10600;53.096;8.802;2022-08-19T00:33:12;16.02;;;7.70;;
20880;SDS011;10600;53.096;8.802;2022-08-19T00:34:13;14.13;;;8.10;;
20880;SDS011;10600;53.096;8.802;2022-08-19T00:35:15;12.75;;;7.70;;
20880;SDS011;10600;53.096;8.802;2022-08-19T00:36:17;10.93;;;8.30;;
20880;SDS011;10600;53.096;8.802;2022-08-19T00:37:22;14.90;;;8.40;;
20880;SDS011;10600;53.096;8.802;2022-08-19T00:38:26;10.82;;;7.93;;
20880;SDS011;10600;53.096;8.802;2022-08-19T00:39:27;13.52;;;8.70;;
20880;SDS011;10600;53.096;8.802;2022-08-19T00:40:28;14.25;;;7.75;;
20880;SDS011;10600;53.096;8.802;2022-08-19T00:41:30;11.48;;;7.82;;
20880;SDS011;10600;53.096;8.802;2022-08-19T00:42:31;11.13;;;7.50;;
20880;SDS011;10600;53.096;8.802;2022-08-19T00:43:32;12.77;;;7.95;;
20880;SDS011;10600;53.096;8.802;2022-08-19T00:44:33;11.73;;;7.63;;
20880;SDS011;10600;53.096;8.802;2022-08-19T00:45:35;13.95;;;8.07;;
20880;SDS011;10600;53.096;8.802;2022-08-19T00:46:37;16.45;;;9.30;;
20880;SDS011;10600;53.096;8.802;2022-08-19T00:47:39;16.15;;;8.05;;
20880;SDS011;10600;53.096;8.802;2022-08-19T00:48:40;13.95;;;8.10;;
20880;SDS011;10600;53.096;8.802;2022-08-19T00:49:43;17.10;;;10.30;;
20880;SDS011;10600;53.096;8.802;2022-08-19T00:50:52;18.13;;;10.75;;
20880;SDS011;10600;53.096;8.802;2022-08-19T00:51:58;23.58;;;14.32;;
20880;SDS011;10600;53.096;8.802;2022-08-19T00:53:12;26.20;;;14.18;;
20880;SDS011;10600;53.096;8.802;2022-08-19T00:54:19;24.25;;;13.60;;
20880;SDS011;10600;53.096;8.802;2022-08-19T00:55:26;23.67;;;14.60;;
20880;SDS011;10600;53.096;8.802;2022-08-19T00:56:30;29.38;;;14.63;;
20880;SDS011;10600;53.096;8.802;2022-08-19T00:57:33;26.35;;;14.68;;
20880;SDS011;10600;53.096;8.802;2022-08-19T00:58:36;29.27;;;14.88;;
20880;SDS011;10600;53.096;8.802;2022-08-19T00:59:37;24.50;;;14.05;;
20880;SDS011;10600;53.096;8.802;2022-08-19T01:00:40;24.10;;;14.60;;
20880;SDS011;10600;53.096;8.802;2022-08-19T01:01:41;26.02;;;14.75;;
20880;SDS011;10600;53.096;8.802;2022-08-19T01:02:44;27.85;;;13.88;;
20880;SDS011;10600;53.096;8.802;2022-08-19T01:03:45;23.35;;;14.68;;
20880;SDS011;10600;53.096;8.802;2022-08-19T01:04:46;25.77;;;14.88;;
20880;SDS011;10600;53.096;8.802;2022-08-19T01:05:47;24.02;;;13.90;;
20880;SDS011;10600;53.096;8.802;2022-08-19T01:06:50;25.55;;;16.63;;
20880;SDS011;10600;53.096;8.802;2022-08-19T01:07:51;26.85;;;15.95;;
20880;SDS011;10600;53.096;8.802;2022-08-19T01:08:53;22.77;;;14.70;;
20880;SDS011;10600;53.096;8.802;2022-08-19T01:09:55;25.60;;;14.32;;
20880;SDS011;10600;53.096;8.802;2022-08-19T01:10:57;25.10;;;14.55;;
20880;SDS011;10600;53.096;8.802;2022-08-19T01:11:59;24.30;;;14.40;;
20880;SDS011;10600;53.096;8.802;2022-08-19T01:13:01;25.30;;;15.15;;
20880;SDS011;10600;53.096;8.802;2022-08-19T01:14:04;23.33;;;14.20;;
20880;SDS011;10600;53.096;8.802;2022-08-19T01:15:10;21.17;;;13.98;;
20880;SDS011;10600;53.096;8.802;2022-08-19T01:16:17;18.27;;;12.68;;
20880;SDS011;10600;53.096;8.802;2022-08-19T01:17:20;23.33;;;12.70;;
20880;SDS011;10600;53.096;8.802;2022-08-19T01:18:21;21.85;;;13.57;;
20880;SDS011;10600;53.096;8.802;2022-08-19T01:19:27;21.67;;;12.73;;
20880;SDS011;10600;53.096;8.802;2022-08-19T01:20:33;21.58;;;13.20;;
20880;SDS011;10600;53.096;8.802;2022-08-19T01:21:35;24.70;;;13.90;;
20880;SDS011;10600;53.096;8.802;2022-08-19T01:22:47;23.08;;;13.70;;
20880;SDS011;10600;53.096;8.802;2022-08-19T01:23:51;18.88;;;12.80;;
20880;SDS011;10600;53.096;8.802;2022-08-19T01:24:51;21.92;;;13.13;;
20880;SDS011;10600;53.096;8.802;2022-08-19T01:25:52;21.48;;;13.60;;
20880;SDS011;10600;53.096;8.802;2022-08-19T01:26:54;26.02;;;14.13;;
20880;SDS011;10600;53.096;8.802;2022-08-19T01:27:55;22.30;;;14.02;;
20880;SDS011;10600;53.096;8.802;2022-08-19T01:28:56;23.50;;;13.45;;
20880;SDS011;10600;53.096;8.802;2022-08-19T01:29:58;20.63;;;13.02;;
20880;SDS011;10600;53.096;8.802;2022-08-19T01:30:59;25.80;;;15.10;;
20880;SDS011;10600;53.096;8.802;2022-08-19T01:32:00;26.55;;;14.45;;
20880;SDS011;10600;53.096;8.802;2022-08-19T01:33:01;23.90;;;13.65;;
20880;SDS011;10600;53.096;8.802;2022-08-19T01:34:05;24.65;;;14.75;;
20880;SDS011;10600;53.096;8.802;2022-08-19T01:35:07;24.83;;;15.48;;
20880;SDS011;10600;53.096;8.802;2022-08-19T01:36:13;26.88;;;14.43;;
20880;SDS011;10600;53.096;8.802;2022-08-19T01:37:22;25.13;;;15.30;;
20880;SDS011;10600;53.096;8.802;2022-08-19T01:38:25;24.23;;;15.23;;
20880;SDS011;10600;53.096;8.802;2022-08-19T01:39:27;24.85;;;14.48;;
20880;SDS011;10600;53.096;8.802;2022-08-19T01:40:29;27.90;;;15.88;;
20880;SDS011;10600;53.096;8.802;2022-08-19T01:41:31;28.35;;;16.20;;
20880;SDS011;10600;53.096;8.802;2022-08-19T01:42:32;27.98;;;14.20;;
20880;SDS011;10600;53.096;8.802;2022-08-19T01:43:36;31.63;;;16.23;;
20880;SDS011;10600;53.096;8.802;2022-08-19T01:44:39;26.85;;;13.82;;
20880;SDS011;10600;53.096;8.802;2022-08-19T01:45:41;27.98;;;15.63;;
20880;SDS011;10600;53.096;8.802;2022-08-19T01:46:42;21.63;;;13.82;;
20880;SDS011;10600;53.096;8.802;2022-08-19T01:47:43;26.00;;;14.73;;
20880;SDS011;10600;53.096;8.802;2022-08-19T01:48:45;28.38;;;14.95;;
20880;SDS011;10600;53.096;8.802;2022-08-19T01:49:46;23.90;;;14.55;;
20880;SDS011;10600;53.096;8.802;2022-08-19T01:50:46;29.65;;;16.08;;
20880;SDS011;10600;53.096;8.802;2022-08-19T01:51:48;27.30;;;15.90;;
20880;SDS011;10600;53.096;8.802;2022-08-19T01:52:49;21.85;;;14.35;;
20880;SDS011;10600;53.096;8.802;2022-08-19T01:53:50;26.60;;;15.45;;
20880;SDS011;10600;53.096;8.802;2022-08-19T01:54:51;28.92;;;14.82;;
20880;SDS011;10600;53.096;8.802;2022-08-19T01:55:52;25.85;;;14.50;;
20880;SDS011;10600;53.096;8.802;2022-08-19T01:56:55;27.83;;;15.23;;
20880;SDS011;10600;53.096;8.802;2022-08-19T01:58:14;24.20;;;14.65;;
20880;SDS011;10600;53.096;8.802;2022-08-19T01:59:19;24.92;;;14.60;;
20880;SDS011;10600;53.096;8.802;2022-08-19T02:00:22;29.85;;;15.70;;
20880;SDS011;10600;53.096;8.802;2022-08-19T02:01:28;25.00;;;14.85;;
20880;SDS011;10600;53.096;8.802;2022-08-19T02:02:31;22.23;;;14.43;;
20880;SDS011;10600;53.096;8.802;2022-08-19T02:03:33;26.15;;;14.68;;
20880;SDS011;10600;53.096;8.802;2022-08-19T02:04:37;28.08;;;15.45;;
20880;SDS011;10600;53.096;8.802;2022-08-19T02:05:38;30.05;;;15.73;;
20880;SDS011;10600;53.096;8.802;2022-08-19T02:06:40;26.90;;;15.88;;
20880;SDS011;10600;53.096;8.802;2022-08-19T02:07:40;25.80;;;15.40;;
20880;SDS011;10600;53.096;8.802;2022-08-19T02:08:42;23.52;;;15.68;;
20880;SDS011;10600;53.096;8.802;2022-08-19T02:09:45;23.80;;;16.05;;
20880;SDS011;10600;53.096;8.802;2022-08-19T02:10:47;24.88;;;15.38;;
20880;SDS011;10600;53.096;8.802;2022-08-19T02:11:48;26.05;;;15.90;;
20880;SDS011;10600;53.096;8.802;2022-08-19T02:12:49;25.38;;;15.30;;
20880;SDS011;10600;53.096;8.802;2022-08-19T02:13:50;25.05;;;14.77;;
20880;SDS011;10600;53.096;8.802;2022-08-19T02:14:50;27.83;;;14.90;;
20880;SDS011;10600;53.096;8.802;2022-08-19T02:15:51;24.10;;;14.63;;
20880;SDS011;10600;53.096;8.802;2022-08-19T02:16:52;26.08;;;14.98;;
20880;SDS011;10600;53.096;8.802;2022-08-19T02:17:52;20.58;;;14.68;;
20880;SDS011;10600;53.096;8.802;2022-08-19T02:18:53;26.13;;;15.38;;
20880;SDS011;10600;53.096;8.802;2022-08-19T02:19:55;25.02;;;15.52;;
20880;SDS011;10600;53.096;8.802;2022-08-19T02:20:56;23.10;;;14.90;;
20880;SDS011;10600;53.096;8.802;2022-08-19T02:21:57;27.90;;;14.35;;
20880;SDS011;10600;53.096;8.802;2022-08-19T02:22:57;23.77;;;14.52;;
20880;SDS011;10600;53.096;8.802;2022-08-19T02:23:58;24.98;;;14.30;;
20880;SDS011;10600;53.096;8.802;2022-08-19T02:24:59;27.25;;;15.68;;
20880;SDS011;10600;53.096;8.802;2022-08-19T02:26:00;24.92;;;15.13;;
20880;SDS011;10600;53.096;8.802;2022-08-19T02:27:00;26.00;;;15.20;;
20880;SDS011;10600;53.096;8.802;2022-08-19T02:28:01;29.27;;;15.60;;
20880;SDS011;10600;53.096;8.802;2022-08-19T02:29:02;24.13;;;13.52;;
20880;SDS011;10600;53.096;8.802;2022-08-19T02:30:05;26.20;;;15.30;;
20880;SDS011;10600;53.096;8.802;2022-08-19T02:31:13;23.23;;;15.32;;
20880;SDS011;10600;53.096;8.802;2022-08-19T02:32:17;28.75;;;15.82;;
20880;SDS011;10600;53.096;8.802;2022-08-19T02:33:21;27.00;;;16.15;;
20880;SDS011;10600;53.096;8.802;2022-08-19T02:34:22;28.17;;;16.55;;
20880;SDS011;10600;53.096;8.802;2022-08-19T02:35:25;25.33;;;15.20;;
20880;SDS011;10600;53.096;8.802;2022-08-19T02:36:26;26.52;;;15.27;;
20880;SDS011;10600;53.096;8.802;2022-08-19T02:37:27;24.60;;;16.27;;
20880;SDS011;10600;53.096;8.802;2022-08-19T02:38:47;30.50;;;15.80;;
20880;SDS011;10600;53.096;8.802;2022-08-19T02:39:48;28.23;;;16.40;;
20880;SDS011;10600;53.096;8.802;2022-08-19T02:40:50;28.70;;;17.55;;
20880;SDS011;10600;53.096;8.802;2022-08-19T02:41:52;30.20;;;16.52;;
20880;SDS011;10600;53.096;8.802;2022-08-19T02:42:53;26.33;;;15.85;;
20880;SDS011;10600;53.096;8.802;2022-08-19T02:43:57;31.17;;;16.33;;
20880;SDS011;10600;53.096;8.802;2022-08-19T02:44:59;26.35;;;15.15;;
20880;SDS011;10600;53.096;8.802;2022-08-19T02:46:00;29.35;;;16.67;;
20880;SDS011;10600;53.096;8.802;2022-08-19T02:47:02;29.85;;;17.63;;
20880;SDS011;10600;53.096;8.802;2022-08-19T02:48:04;28.30;;;17.20;;
20880;SDS011;10600;53.096;8.802;2022-08-19T02:49:05;25.90;;;15.77;;
20880;SDS011;10600;53.096;8.802;2022-08-19T02:50:08;28.65;;;15.07;;
20880;SDS011;10600;53.096;8.802;2022-08-19T02:51:19;28.08;;;17.42;;
20880;SDS011;10600;53.096;8.802;2022-08-19T02:52:29;32.92;;;17.98;;
20880;SDS011;10600;53.096;8.802;2022-08-19T02:53:31;31.55;;;18.58;;
20880;SDS011;10600;53.096;8.802;2022-08-19T02:54:39;31.50;;;17.48;;
20880;SDS011;10600;53.096;8.802;2022-08-19T02:55:43;32.47;;;19.35;;
20880;SDS011;10600;53.096;8.802;2022-08-19T02:56:45;28.55;;;18.10;;
20880;SDS011;10600;53.096;8.802;2022-08-19T02:57:49;29.70;;;16.77;;
20880;SDS011;10600;53.096;8.802;2022-08-19T02:58:54;27.65;;;17.35;;
20880;SDS011;10600;53.096;8.802;2022-08-19T02:59:55;32.63;;;18.92;;
20880;SDS011;10600;53.096;8.802;2022-08-19T03:00:56;29.50;;;17.48;;
20880;SDS011;10600;53.096;8.802;2022-08-19T03:01:57;30.50;;;17.75;;
20880;SDS011;10600;53.096;8.802;2022-08-19T03:02:58;29.58;;;16.95;;
20880;SDS011;10600;53.096;8.802;2022-08-19T03:04:01;27.98;;;17.05;;
20880;SDS011;10600;53.096;8.802;2022-08-19T03:05:04;31.35;;;17.05;;
20880;SDS011;10600;53.096;8.802;2022-08-19T03:06:08;30.95;;;17.73;;
20880;SDS011;10600;53.096;8.802;2022-08-19T03:07:13;32.38;;;17.75;;
20880;SDS011;10600;53.096;8.802;2022-08-19T03:08:15;29.95;;;17.23;;
20880;SDS011;10600;53.096;8.802;2022-08-19T03:09:16;24.75;;;16.63;;
20880;SDS011;10600;53.096;8.802;2022-08-19T03:10:27;30.52;;;17.52;;
20880;SDS011;10600;53.096;8.802;2022-08-19T03:11:28;31.60;;;18.08;;
20880;SDS011;10600;53.096;8.802;2022-08-19T03:12:31;26.73;;;16.25;;
20880;SDS011;10600;53.096;8.802;2022-08-19T03:13:36;28.40;;;16.20;;
20880;SDS011;10600;53.096;8.802;2022-08-19T03:14:37;31.00;;;17.52;;
20880;SDS011;10600;53.096;8.802;2022-08-19T03:15:47;31.15;;;16.35;;
20880;SDS011;10600;53.096;8.802;2022-08-19T03:16:49;29.60;;;17.40;;
20880;SDS011;10600;53.096;8.802;2022-08-19T03:17:51;29.02;;;16.45;;
20880;SDS011;10600;53.096;8.802;2022-08-19T03:18:52;28.98;;;17.23;;
20880;SDS011;10600;53.096;8.802;2022-08-19T03:19:55;26.23;;;16.40;;
20880;SDS011;10600;53.096;8.802;2022-08-19T03:20:56;25.33;;;16.67;;
20880;SDS011;10600;53.096;8.802;2022-08-19T03:21:57;30.60;;;15.20;;
20880;SDS011;10600;53.096;8.802;2022-08-19T03:22:58;25.15;;;14.77;;
20880;SDS011;10600;53.096;8.802;2022-08-19T03:24:00;20.17;;;12.68;;
20880;SDS011;10600;53.096;8.802;2022-08-19T03:25:03;14.60;;;10.32;;
20880;SDS011;10600;53.096;8.802;2022-08-19T03:26:07;15.05;;;10.32;;
20880;SDS011;10600;53.096;8.802;2022-08-19T03:27:08;11.75;;;8.70;;
20880;SDS011;10600;53.096;8.802;2022-08-19T03:28:14;13.77;;;8.88;;
20880;SDS011;10600;53.096;8.802;2022-08-19T03:29:24;12.05;;;8.40;;
20880;SDS011;10600;53.096;8.802;2022-08-19T03:30:41;11.20;;;7.50;;
20880;SDS011;10600;53.096;8.802;2022-08-19T03:31:45;10.55;;;7.53;;
20880;SDS011;10600;53.096;8.802;2022-08-19T03:32:46;11.10;;;7.72;;
20880;SDS011;10600;53.096;8.802;2022-08-19T03:33:47;9.80;;;7.47;;
20880;SDS011;10600;53.096;8.802;2022-08-19T03:34:51;12.15;;;7.75;;
20880;SDS011;10600;53.096;8.802;2022-08-19T03:35:59;12.98;;;7.80;;
20880;SDS011;10600;53.096;8.802;2022-08-19T03:37:05;8.38;;;6.60;;
20880;SDS011;10600;53.096;8.802;2022-08-19T03:38:10;8.65;;;5.90;;
20880;SDS011;10600;53.096;8.802;2022-08-19T03:39:11;9.40;;;6.53;;
20880;SDS011;10600;53.096;8.802;2022-08-19T03:40:12;9.55;;;6.85;;
20880;SDS011;10600;53.096;8.802;2022-08-19T03:41:14;11.82;;;6.80;;
20880;SDS011;10600;53.096;8.802;2022-08-19T03:42:21;9.98;;;6.82;;
20880;SDS011;10600;53.096;8.802;2022-08-19T03:43:23;12.98;;;6.72;;
20880;SDS011;10600;53.096;8.802;2022-08-19T03:44:24;11.35;;;6.68;;
20880;SDS011;10600;53.096;8.802;2022-08-19T03:45:27;7.82;;;6.20;;
20880;SDS011;10600;53.096;8.802;2022-08-19T03:46:29;12.40;;;7.43;;
20880;SDS011;10600;53.096;8.802;2022-08-19T03:47:32;9.43;;;6.72;;
20880;SDS011;10600;53.096;8.802;2022-08-19T03:48:43;10.48;;;6.85;;
20880;SDS011;10600;53.096;8.802;2022-08-19T03:49:44;9.98;;;6.72;;
20880;SDS011;10600;53.096;8.802;2022-08-19T03:50:51;11.27;;;6.88;;
20880;SDS011;10600;53.096;8.802;2022-08-19T03:51:52;10.20;;;6.65;;
20880;SDS011;10600;53.096;8.802;2022-08-19T03:53:00;8.40;;;6.30;;
20880;SDS011;10600;53.096;8.802;2022-08-19T03:54:02;10.15;;;6.68;;
20880;SDS011;10600;53.096;8.802;2022-08-19T03:55:06;9.88;;;6.82;;
20880;SDS011;10600;53.096;8.802;2022-08-19T03:56:08;9.18;;;7.93;;
20880;SDS011;10600;53.096;8.802;2022-08-19T03:57:10;11.00;;;7.57;;
20880;SDS011;10600;53.096;8.802;2022-08-19T03:58:11;9.75;;;7.30;;
20880;SDS011;10600;53.096;8.802;2022-08-19T03:59:13;8.85;;;6.78;;
20880;SDS011;10600;53.096;8.802;2022-08-19T04:00:16;9.77;;;7.07;;
20880;SDS011;10600;53.096;8.802;2022-08-19T04:01:19;10.25;;;7.72;;
20880;SDS011;10600;53.096;8.802;2022-08-19T04:02:21;10.68;;;7.28;;
20880;SDS011;10600;53.096;8.802;2022-08-19T04:03:22;9.32;;;6.93;;
20880;SDS011;10600;53.096;8.802;2022-08-19T04:04:27;8.88;;;7.10;;
20880;SDS011;10600;53.096;8.802;2022-08-19T04:05:28;11.27;;;7.32;;
20880;SDS011;10600;53.096;8.802;2022-08-19T04:06:30;10.57;;;6.88;;
20880;SDS011;10600;53.096;8.802;2022-08-19T04:07:33;10.98;;;6.70;;
20880;SDS011;10600;53.096;8.802;2022-08-19T04:08:34;8.20;;;7.38;;
20880;SDS011;10600;53.096;8.802;2022-08-19T04:09:35;10.88;;;8.15;;
20880;SDS011;10600;53.096;8.802;2022-08-19T04:10:36;11.65;;;8.75;;
20880;SDS011;10600;53.096;8.802;2022-08-19T04:11:44;11.77;;;8.52;;
20880;SDS011;10600;53.096;8.802;2022-08-19T04:12:48;15.15;;;8.40;;
20880;SDS011;10600;53.096;8.802;2022-08-19T04:13:51;11.65;;;7.50;;
20880;SDS011;10600;53.096;8.802;2022-08-19T04:14:53;13.60;;;8.82;;
20880;SDS011;10600;53.096;8.802;2022-08-19T04:15:54;9.82;;;8.15;;
20880;SDS011;10600;53.096;8.802;2022-08-19T04:16:55;18.35;;;12.23;;
20880;SDS011;10600;53.096;8.802;2022-08-19T04:17:55;19.60;;;13.32;;
20880;SDS011;10600;53.096;8.802;2022-08-19T04:18:56;26.25;;;16.48;;
20880;SDS011;10600;53.096;8.802;2022-08-19T04:20:00;25.63;;;16.80;;
20880;SDS011;10600;53.096;8.802;2022-08-19T04:21:01;26.65;;;17.88;;
20880;SDS011;10600;53.096;8.802;2022-08-19T04:22:02;40.13;;;26.00;;
20880;SDS011;10600;53.096;8.802;2022-08-19T04:23:04;32.05;;;20.13;;
20880;SDS011;10600;53.096;8.802;2022-08-19T04:24:04;28.73;;;18.88;;
20880;SDS011;10600;53.096;8.802;2022-08-19T04:25:06;30.58;;;19.02;;
20880;SDS011;10600;53.096;8.802;2022-08-19T04:26:07;29.15;;;18.25;;
20880;SDS011;10600;53.096;8.802;2022-08-19T04:27:13;31.90;;;18.52;;
20880;SDS011;10600;53.096;8.802;2022-08-19T04:28:14;35.58;;;19.77;;
20880;SDS011;10600;53.096;8.802;2022-08-19T04:29:19;31.35;;;19.88;;
20880;SDS011;10600;53.096;8.802;2022-08-19T04:30:24;29.95;;;18.20;;
20880;SDS011;10600;53.096;8.802;2022-08-19T04:31:26;31.25;;;18.05;;
20880;SDS011;10600;53.096;8.802;2022-08-19T04:32:28;32.60;;;19.73;;
20880;SDS011;10600;53.096;8.802;2022-08-19T04:33:31;31.63;;;18.25;;
20880;SDS011;10600;53.096;8.802;2022-08-19T04:34:32;32.10;;;18.85;;
20880;SDS011;10600;53.096;8.802;2022-08-19T04:35:37;35.90;;;19.10;;
20880;SDS011;10600;53.096;8.802;2022-08-19T04:36:40;33.38;;;18.95;;
20880;SDS011;10600;53.096;8.802;2022-08-19T04:37:44;33.58;;;18.25;;
20880;SDS011;10600;53.096;8.802;2022-08-19T04:38:45;31.38;;;17.88;;
20880;SDS011;10600;53.096;8.802;2022-08-19T04:39:47;31.02;;;18.00;;
20880;SDS011;10600;53.096;8.802;2022-08-19T04:41:06;33.90;;;19.67;;
20880;SDS011;10600;53.096;8.802;2022-08-19T04:42:26;29.65;;;17.27;;
20880;SDS011;10600;53.096;8.802;2022-08-19T04:43:38;33.80;;;18.35;;
20880;SDS011;10600;53.096;8.802;2022-08-19T04:44:39;33.15;;;18.50;;
20880;SDS011;10600;53.096;8.802;2022-08-19T04:45:42;34.65;;;19.27;;
20880;SDS011;10600;53.096;8.802;2022-08-19T04:46:44;28.85;;;17.70;;
20880;SDS011;10600;53.096;8.802;2022-08-19T04:47:47;31.73;;;18.38;;
20880;SDS011;10600;53.096;8.802;2022-08-19T04:48:48;34.53;;;18.05;;
20880;SDS011;10600;53.096;8.802;2022-08-19T04:49:48;29.73;;;18.17;;
20880;SDS011;10600;53.096;8.802;2022-08-19T04:50:49;34.53;;;17.75;;
20880;SDS011;10600;53.096;8.802;2022-08-19T04:51:51;34.08;;;18.85;;
20880;SDS011;10600;53.096;8.802;2022-08-19T04:52:54;34.58;;;20.10;;
20880;SDS011;10600;53.096;8.802;2022-08-19T04:53:55;27.23;;;17.42;;
20880;SDS011;10600;53.096;8.802;2022-08-19T04:54:57;32.97;;;19.20;;
20880;SDS011;10600;53.096;8.802;2022-08-19T04:55:58;38.88;;;20.38;;
20880;SDS011;10600;53.096;8.802;2022-08-19T04:57:00;36.95;;;19.52;;
20880;SDS011;10600;53.096;8.802;2022-08-19T04:58:01;34.13;;;18.27;;
20880;SDS011;10600;53.096;8.802;2022-08-19T04:59:02;34.13;;;19.60;;
20880;SDS011;10600;53.096;8.802;2022-08-19T05:00:04;37.60;;;19.48;;
20880;SDS011;10600;53.096;8.802;2022-08-19T05:01:05;36.80;;;21.67;;
20880;SDS011;10600;53.096;8.802;2022-08-19T05:02:07;33.58;;;18.73;;
20880;SDS011;10600;53.096;8.802;2022-08-19T05:03:09;34.42;;;19.50;;
20880;SDS011;10600;53.096;8.802;2022-08-19T05:04:10;34.00;;;19.67;;
20880;SDS011;10600;53.096;8.802;2022-08-19T05:05:23;34.83;;;20.08;;
20880;SDS011;10600;53.096;8.802;2022-08-19T05:06:24;35.58;;;19.35;;
20880;SDS011;10600;53.096;8.802;2022-08-19T05:07:25;37.13;;;19.35;;
20880;SDS011;10600;53.096;8.802;2022-08-19T05:08:27;41.75;;;22.35;;
20880;SDS011;10600;53.096;8.802;2022-08-19T05:09:28;38.03;;;21.55;;
20880;SDS011;10600;53.096;8.802;2022-08-19T05:10:30;35.83;;;19.85;;
20880;SDS011;10600;53.096;8.802;2022-08-19T05:11:33;44.38;;;23.65;;
20880;SDS011;10600;53.096;8.802;2022-08-19T05:12:38;41.80;;;23.00;;
20880;SDS011;10600;53.096;8.802;2022-08-19T05:13:39;39.97;;;22.67;;
20880;SDS011;10600;53.096;8.802;2022-08-19T05:14:42;42.35;;;23.20;;
20880;SDS011;10600;53.096;8.802;2022-08-19T05:15:55;46.75;;;24.15;;
20880;SDS011;10600;53.096;8.802;2022-08-19T05:16:57;45.58;;;23.55;;
20880;SDS011;10600;53.096;8.802;2022-08-19T05:17:58;49.58;;;25.60;;
20880;SDS011;10600;53.096;8.802;2022-08-19T05:19:18;53.08;;;26.10;;
20880;SDS011;10600;53.096;8.802;2022-08-19T05:20:38;47.65;;;25.13;;
20880;SDS011;10600;53.096;8.802;2022-08-19T05:21:58;50.80;;;25.80;;
20880;SDS011;10600;53.096;8.802;2022-08-19T05:23:18;51.60;;;26.92;;
20880;SDS011;10600;53.096;8.802;2022-08-19T05:24:20;58.53;;;26.55;;
20880;SDS011;10600;53.096;8.802;2022-08-19T05:25:21;55.42;;;26.67;;
20880;SDS011;10600;53.096;8.802;2022-08-19T05:26:23;47.83;;;26.23;;
20880;SDS011;10600;53.096;8.802;2022-08-19T05:27:27;56.95;;;28.25;;
20880;SDS011;10600;53.096;8.802;2022-08-19T05:28:28;57.05;;;28.15;;
20880;SDS011;10600;53.096;8.802;2022-08-19T05:29:29;51.33;;;26.45;;
20880;SDS011;10600;53.096;8.802;2022-08-19T05:30:34;58.42;;;27.42;;
20880;SDS011;10600;53.096;8.802;2022-08-19T05:31:36;57.40;;;27.50;;
20880;SDS011;10600;53.096;8.802;2022-08-19T05:32:39;61.85;;;28.85;;
20880;SDS011;10600;53.096;8.802;2022-08-19T05:33:39;59.60;;;26.98;;
20880;SDS011;10600;53.096;8.802;2022-08-19T05:34:40;58.55;;;28.02;;
20880;SDS011;10600;53.096;8.802;2022-08-19T05:35:41;59.30;;;28.13;;
20880;SDS011;10600;53.096;8.802;2022-08-19T05:36:43;66.15;;;29.70;;
20880;SDS011;10600;53.096;8.802;2022-08-19T05:37:59;68.03;;;31.33;;
20880;SDS011;10600;53.096;8.802;2022-08-19T05:39:00;65.70;;;33.63;;
20880;SDS011;10600;53.096;8.802;2022-08-19T05:40:01;66.53;;;30.83;;
20880;SDS011;10600;53.096;8.802;2022-08-19T05:41:09;68.80;;;30.95;;
20880;SDS011;10600;53.096;8.802;2022-08-19T05:42:11;61.70;;;29.20;;
20880;SDS011;10600;53.096;8.802;2022-08-19T05:43:12;66.93;;;30.75;;
20880;SDS011;10600;53.096;8.802;2022-08-19T05:44:15;60.17;;;28.67;;
20880;SDS011;10600;53.096;8.802;2022-08-19T05:45:20;52.90;;;27.50;;
20880;SDS011;10600;53.096;8.802;2022-08-19T05:46:22;60.92;;;28.88;;
20880;SDS011;10600;53.096;8.802;2022-08-19T05:47:23;62.45;;;29.88;;
20880;SDS011;10600;53.096;8.802;2022-08-19T05:48:28;64.95;;;29.17;;
20880;SDS011;10600;53.096;8.802;2022-08-19T05:49:30;66.20;;;30.88;;
20880;SDS011;10600;53.096;8.802;2022-08-19T05:50:31;61.03;;;29.75;;
20880;SDS011;10600;53.096;8.802;2022-08-19T05:51:39;62.08;;;29.30;;
20880;SDS011;10600;53.096;8.802;2022-08-19T05:52:49;56.70;;;27.73;;
20880;SDS011;10600;53.096;8.802;2022-08-19T05:53:50;57.75;;;30.13;;
20880;SDS011;10600;53.096;8.802;2022-08-19T05:54:55;60.90;;;29.60;;
20880;SDS011;10600;53.096;8.802;2022-08-19T05:56:05;56.88;;;29.75;;
20880;SDS011;10600;53.096;8.802;2022-08-19T05:57:07;65.75;;;31.52;;
20880;SDS011;10600;53.096;8.802;2022-08-19T05:58:08;59.97;;;30.10;;
20880;SDS011;10600;53.096;8.802;2022-08-19T05:59:09;58.42;;;30.15;;
20880;SDS011;10600;53.096;8.802;2022-08-19T06:00:11;51.28;;;27.25;;
20880;SDS011;10600;53.096;8.802;2022-08-19T06:01:14;60.40;;;29.00;;
20880;SDS011;10600;53.096;8.802;2022-08-19T06:02:16;56.75;;;29.15;;
20880;SDS011;10600;53.096;8.802;2022-08-19T06:03:20;58.58;;;28.98;;
20880;SDS011;10600;53.096;8.802;2022-08-19T06:04:24;62.17;;;29.50;;
20880;SDS011;10600;53.096;8.802;2022-08-19T06:05:29;53.00;;;27.48;;
20880;SDS011;10600;53.096;8.802;2022-08-19T06:06:30;64.60;;;29.48;;
20880;SDS011;10600;53.096;8.802;2022-08-19T06:07:37;54.35;;;28.20;;
20880;SDS011;10600;53.096;8.802;2022-08-19T06:08:45;55.10;;;27.25;;
20880;SDS011;10600;53.096;8.802;2022-08-19T06:09:51;53.63;;;28.33;;
20880;SDS011;10600;53.096;8.802;2022-08-19T06:10:53;54.00;;;27.08;;